sensor_id;sensor_type;location;lat;lon;timestamp;P1;durP1;ratioP1;P2;durP2;ratioP2
43680;SDS011;29281;50.356;30.894;2022-07-23T00:00:50;3.73;;;3.08;;
43680;SDS011;29281;50.356;30.894;2022-07-23T00:01:54;4.50;;;3.28;;
43680;SDS011;29281;50.356;30.894;2022-07-23T00:02:59;4.08;;;3.29;;
43680;SDS011;29281;50.356;30.894;2022-07-23T00:04:02;4.05;;;3.13;;
43680;SDS011;29281;50.356;30.894;2022-07-23T00:05:06;3.88;;;2.91;;
43680;SDS011;29281;50.356;30.894;2022-07-23T00:06:14;3.94;;;3.08;;
43680;SDS011;29281;50.356;30.894;2022-07-23T00:07:19;4.36;;;3.18;;
43680;SDS011;29281;50.356;30.894;2022-07-23T00:08:23;6.36;;;3.13;;
43680;SDS011;29281;50.356;30.894;2022-07-23T00:09:27;3.52;;;3.05;;
43680;SDS011;29281;50.356;30.894;2022-07-23T00:10:33;4.03;;;3.39;;
43680;SDS011;29281;50.356;30.894;2022-07-23T00:11:37;3.79;;;3.22;;
43680;SDS011;29281;50.356;30.894;2022-07-23T00:12:41;3.26;;;2.94;;
43680;SDS011;29281;50.356;30.894;2022-07-23T00:13:47;6.16;;;3.41;;
43680;SDS011;29281;50.356;30.894;2022-07-23T00:14:52;3.87;;;3.13;;
43680;SDS011;29281;50.356;30.894;2022-07-23T00:15:55;3.42;;;3.02;;
43680;SDS011;29281;50.356;30.894;2022-07-23T00:16:59;4.01;;;3.16;;
43680;SDS011;29281;50.356;30.894;2022-07-23T00:18:06;5.14;;;3.26;;
43680;SDS011;29281;50.356;30.894;2022-07-23T00:19:10;3.87;;;3.06;;
43680;SDS011;29281;50.356;30.894;2022-07-23T00:20:16;3.50;;;2.94;;
43680;SDS011;29281;50.356;30.894;2022-07-23T00:21:20;4.07;;;3.09;;
43680;SDS011;29281;50.356;30.894;2022-07-23T00:22:26;4.94;;;3.33;;
43680;SDS011;29281;50.356;30.894;2022-07-23T00:23:33;3.44;;;2.99;;
43680;SDS011;29281;50.356;30.894;2022-07-23T00:24:38;4.02;;;2.89;;
43680;SDS011;29281;50.356;30.894;2022-07-23T00:25:42;4.91;;;3.02;;
43680;SDS011;29281;50.356;30.894;2022-07-23T00:26:46;5.28;;;3.59;;
43680;SDS011;29281;50.356;30.894;2022-07-23T00:27:50;4.51;;;3.16;;
43680;SDS011;29281;50.356;30.894;2022-07-23T00:28:53;5.25;;;3.29;;
43680;SDS011;29281;50.356;30.894;2022-07-23T00:29:56;3.26;;;2.96;;
43680;SDS011;29281;50.356;30.894;2022-07-23T00:31:02;4.53;;;3.14;;
43680;SDS011;29281;50.356;30.894;2022-07-23T00:32:06;4.09;;;3.12;;
43680;SDS011;29281;50.356;30.894;2022-07-23T00:33:09;3.83;;;3.08;;
43680;SDS011;29281;50.356;30.894;2022-07-23T00:34:13;4.80;;;3.27;;
43680;SDS011;29281;50.356;30.894;2022-07-23T00:35:20;5.64;;;3.20;;
43680;SDS011;29281;50.356;30.894;2022-07-23T00:36:26;3.84;;;3.11;;
43680;SDS011;29281;50.356;30.894;2022-07-23T00:37:32;3.83;;;3.23;;
43680;SDS011;29281;50.356;30.894;2022-07-23T00:38:39;4.43;;;3.11;;
43680;SDS011;29281;50.356;30.894;2022-07-23T00:39:44;4.63;;;3.22;;
43680;SDS011;29281;50.356;30.894;2022-07-23T00:40:47;3.29;;;2.98;;
43680;SDS011;29281;50.356;30.894;2022-07-23T00:41:52;3.72;;;3.14;;
43680;SDS011;29281;50.356;30.894;2022-07-23T00:42:57;3.50;;;3.14;;
43680;SDS011;29281;50.356;30.894;2022-07-23T00:44:18;3.85;;;3.01;;
43680;SDS011;29281;50.356;30.894;2022-07-23T00:45:31;3.81;;;3.05;;
43680;SDS011;29281;50.356;30.894;2022-07-23T00:46:36;3.86;;;3.07;;
43680;SDS011;29281;50.356;30.894;2022-07-23T00:47:41;4.56;;;2.99;;
43680;SDS011;29281;50.356;30.894;2022-07-23T00:48:46;5.02;;;3.17;;
43680;SDS011;29281;50.356;30.894;2022-07-23T00:49:50;4.41;;;3.46;;
43680;SDS011;29281;50.356;30.894;2022-07-23T00:50:54;4.39;;;3.64;;
43680;SDS011;29281;50.356;30.894;2022-07-23T00:51:58;4.06;;;3.23;;
43680;SDS011;29281;50.356;30.894;2022-07-23T00:53:05;4.78;;;3.43;;
43680;SDS011;29281;50.356;30.894;2022-07-23T00:54:09;4.07;;;3.30;;
43680;SDS011;29281;50.356;30.894;2022-07-23T00:55:14;4.02;;;3.45;;
43680;SDS011;29281;50.356;30.894;2022-07-23T00:56:19;4.03;;;3.58;;
43680;SDS011;29281;50.356;30.894;2022-07-23T00:57:22;4.95;;;3.39;;
43680;SDS011;29281;50.356;30.894;2022-07-23T00:58:29;4.31;;;3.21;;
43680;SDS011;29281;50.356;30.894;2022-07-23T00:59:35;5.43;;;3.32;;
43680;SDS011;29281;50.356;30.894;2022-07-23T01:00:41;5.28;;;3.55;;
43680;SDS011;29281;50.356;30.894;2022-07-23T01:01:44;4.89;;;3.20;;
43680;SDS011;29281;50.356;30.894;2022-07-23T01:02:49;4.48;;;3.51;;
43680;SDS011;29281;50.356;30.894;2022-07-23T01:03:54;4.34;;;3.39;;
43680;SDS011;29281;50.356;30.894;2022-07-23T01:04:59;4.69;;;3.33;;
43680;SDS011;29281;50.356;30.894;2022-07-23T01:06:03;4.75;;;3.35;;
43680;SDS011;29281;50.356;30.894;2022-07-23T01:07:07;4.44;;;3.42;;
43680;SDS011;29281;50.356;30.894;2022-07-23T01:08:10;4.97;;;3.19;;
43680;SDS011;29281;50.356;30.894;2022-07-23T01:09:14;5.62;;;3.33;;
43680;SDS011;29281;50.356;30.894;2022-07-23T01:10:18;4.52;;;3.48;;
43680;SDS011;29281;50.356;30.894;2022-07-23T01:11:36;5.12;;;3.56;;
43680;SDS011;29281;50.356;30.894;2022-07-23T01:12:41;7.28;;;3.26;;
43680;SDS011;29281;50.356;30.894;2022-07-23T01:13:45;4.76;;;3.51;;
43680;SDS011;29281;50.356;30.894;2022-07-23T01:41:07;4.63;;;3.28;;
43680;SDS011;29281;50.356;30.894;2022-07-23T01:42:13;3.70;;;3.24;;
43680;SDS011;29281;50.356;30.894;2022-07-23T01:43:17;4.78;;;3.11;;
43680;SDS011;29281;50.356;30.894;2022-07-23T01:44:21;4.85;;;3.17;;
43680;SDS011;29281;50.356;30.894;2022-07-23T01:45:25;5.24;;;3.59;;
43680;SDS011;29281;50.356;30.894;2022-07-23T01:46:32;4.98;;;3.46;;
43680;SDS011;29281;50.356;30.894;2022-07-23T01:47:38;5.39;;;3.49;;
43680;SDS011;29281;50.356;30.894;2022-07-23T01:48:41;4.42;;;3.51;;
43680;SDS011;29281;50.356;30.894;2022-07-23T01:49:49;4.26;;;3.33;;
43680;SDS011;29281;50.356;30.894;2022-07-23T01:50:55;4.36;;;3.49;;
43680;SDS011;29281;50.356;30.894;2022-07-23T01:52:01;3.93;;;3.25;;
43680;SDS011;29281;50.356;30.894;2022-07-23T01:53:10;4.18;;;3.59;;
43680;SDS011;29281;50.356;30.894;2022-07-23T01:54:15;3.82;;;2.87;;
43680;SDS011;29281;50.356;30.894;2022-07-23T01:55:17;8.38;;;4.29;;
43680;SDS011;29281;50.356;30.894;2022-07-23T01:56:26;5.03;;;3.35;;
43680;SDS011;29281;50.356;30.894;2022-07-23T01:57:31;5.81;;;3.56;;
43680;SDS011;29281;50.356;30.894;2022-07-23T01:58:48;5.32;;;3.53;;
43680;SDS011;29281;50.356;30.894;2022-07-23T01:59:54;3.46;;;3.14;;
43680;SDS011;29281;50.356;30.894;2022-07-23T02:00:59;4.24;;;3.50;;
43680;SDS011;29281;50.356;30.894;2022-07-23T02:02:03;4.99;;;3.38;;
43680;SDS011;29281;50.356;30.894;2022-07-23T02:03:08;4.01;;;3.45;;
43680;SDS011;29281;50.356;30.894;2022-07-23T02:04:13;4.57;;;3.58;;
43680;SDS011;29281;50.356;30.894;2022-07-23T02:05:18;4.59;;;3.58;;
43680;SDS011;29281;50.356;30.894;2022-07-23T02:06:23;4.86;;;3.91;;
43680;SDS011;29281;50.356;30.894;2022-07-23T02:07:27;5.37;;;3.88;;
43680;SDS011;29281;50.356;30.894;2022-07-23T02:08:34;4.59;;;3.74;;
43680;SDS011;29281;50.356;30.894;2022-07-23T02:09:38;4.96;;;4.11;;
43680;SDS011;29281;50.356;30.894;2022-07-23T02:10:42;5.77;;;3.91;;
43680;SDS011;29281;50.356;30.894;2022-07-23T02:11:48;5.77;;;4.34;;
43680;SDS011;29281;50.356;30.894;2022-07-23T02:12:54;5.23;;;4.23;;
43680;SDS011;29281;50.356;30.894;2022-07-23T02:13:56;5.71;;;4.76;;
43680;SDS011;29281;50.356;30.894;2022-07-23T02:15:00;7.94;;;5.26;;
43680;SDS011;29281;50.356;30.894;2022-07-23T02:16:04;6.05;;;5.10;;
43680;SDS011;29281;50.356;30.894;2022-07-23T02:17:07;6.35;;;5.29;;
43680;SDS011;29281;50.356;30.894;2022-07-23T02:18:10;8.28;;;5.19;;
43680;SDS011;29281;50.356;30.894;2022-07-23T02:19:15;6.93;;;5.83;;
43680;SDS011;29281;50.356;30.894;2022-07-23T02:20:23;6.87;;;5.73;;
43680;SDS011;29281;50.356;30.894;2022-07-23T02:21:28;8.17;;;6.68;;
43680;SDS011;29281;50.356;30.894;2022-07-23T02:22:34;7.96;;;6.81;;
43680;SDS011;29281;50.356;30.894;2022-07-23T02:23:38;8.44;;;6.71;;
43680;SDS011;29281;50.356;30.894;2022-07-23T02:24:44;8.84;;;6.22;;
43680;SDS011;29281;50.356;30.894;2022-07-23T02:25:48;9.48;;;6.76;;
43680;SDS011;29281;50.356;30.894;2022-07-23T02:26:52;7.64;;;6.67;;
43680;SDS011;29281;50.356;30.894;2022-07-23T02:27:57;8.13;;;5.89;;
43680;SDS011;29281;50.356;30.894;2022-07-23T02:29:01;7.59;;;6.17;;
43680;SDS011;29281;50.356;30.894;2022-07-23T02:30:05;8.59;;;6.34;;
43680;SDS011;29281;50.356;30.894;2022-07-23T02:31:13;7.13;;;6.36;;
43680;SDS011;29281;50.356;30.894;2022-07-23T02:32:22;7.14;;;5.99;;
43680;SDS011;29281;50.356;30.894;2022-07-23T02:33:26;7.01;;;6.12;;
43680;SDS011;29281;50.356;30.894;2022-07-23T02:34:29;8.95;;;6.47;;
43680;SDS011;29281;50.356;30.894;2022-07-23T02:35:33;7.57;;;6.22;;
43680;SDS011;29281;50.356;30.894;2022-07-23T02:36:38;7.23;;;6.19;;
43680;SDS011;29281;50.356;30.894;2022-07-23T02:37:44;7.46;;;6.39;;
43680;SDS011;29281;50.356;30.894;2022-07-23T02:38:48;7.11;;;5.96;;
43680;SDS011;29281;50.356;30.894;2022-07-23T02:39:52;8.72;;;5.84;;
43680;SDS011;29281;50.356;30.894;2022-07-23T02:40:58;7.16;;;6.19;;
43680;SDS011;29281;50.356;30.894;2022-07-23T02:42:04;6.98;;;5.72;;
43680;SDS011;29281;50.356;30.894;2022-07-23T02:43:08;7.94;;;5.66;;
43680;SDS011;29281;50.356;30.894;2022-07-23T02:44:13;6.26;;;5.27;;
43680;SDS011;29281;50.356;30.894;2022-07-23T02:45:18;7.52;;;5.71;;
43680;SDS011;29281;50.356;30.894;2022-07-23T02:46:26;5.82;;;4.88;;
43680;SDS011;29281;50.356;30.894;2022-07-23T02:47:32;8.97;;;5.73;;
43680;SDS011;29281;50.356;30.894;2022-07-23T02:48:34;7.75;;;5.04;;
43680;SDS011;29281;50.356;30.894;2022-07-23T02:49:38;6.09;;;5.32;;
43680;SDS011;29281;50.356;30.894;2022-07-23T02:50:46;7.87;;;5.05;;
43680;SDS011;29281;50.356;30.894;2022-07-23T02:51:51;5.33;;;4.65;;
43680;SDS011;29281;50.356;30.894;2022-07-23T02:52:53;6.64;;;4.72;;
43680;SDS011;29281;50.356;30.894;2022-07-23T02:53:59;9.14;;;5.04;;
43680;SDS011;29281;50.356;30.894;2022-07-23T02:55:07;6.25;;;4.82;;
43680;SDS011;29281;50.356;30.894;2022-07-23T02:56:13;6.33;;;4.74;;
43680;SDS011;29281;50.356;30.894;2022-07-23T02:57:18;4.94;;;4.37;;
43680;SDS011;29281;50.356;30.894;2022-07-23T02:58:22;6.86;;;4.68;;
43680;SDS011;29281;50.356;30.894;2022-07-23T02:59:25;6.15;;;4.27;;
43680;SDS011;29281;50.356;30.894;2022-07-23T03:00:31;5.78;;;4.59;;
43680;SDS011;29281;50.356;30.894;2022-07-23T03:01:37;6.23;;;4.43;;
43680;SDS011;29281;50.356;30.894;2022-07-23T03:02:40;5.56;;;4.19;;
43680;SDS011;29281;50.356;30.894;2022-07-23T03:03:44;5.48;;;4.53;;
43680;SDS011;29281;50.356;30.894;2022-07-23T03:04:49;5.01;;;4.37;;
43680;SDS011;29281;50.356;30.894;2022-07-23T03:05:55;5.77;;;4.18;;
43680;SDS011;29281;50.356;30.894;2022-07-23T03:07:00;4.72;;;4.16;;
43680;SDS011;29281;50.356;30.894;2022-07-23T03:08:03;4.34;;;3.72;;
43680;SDS011;29281;50.356;30.894;2022-07-23T03:09:09;6.14;;;3.95;;
43680;SDS011;29281;50.356;30.894;2022-07-23T03:10:16;4.46;;;4.01;;
43680;SDS011;29281;50.356;30.894;2022-07-23T03:11:19;5.51;;;3.97;;
43680;SDS011;29281;50.356;30.894;2022-07-23T03:12:23;6.01;;;4.50;;
43680;SDS011;29281;50.356;30.894;2022-07-23T03:13:30;5.30;;;3.90;;
43680;SDS011;29281;50.356;30.894;2022-07-23T03:14:33;4.47;;;3.74;;
43680;SDS011;29281;50.356;30.894;2022-07-23T03:15:37;4.25;;;3.66;;
43680;SDS011;29281;50.356;30.894;2022-07-23T03:16:40;5.03;;;4.10;;
43680;SDS011;29281;50.356;30.894;2022-07-23T03:17:43;4.28;;;3.88;;
43680;SDS011;29281;50.356;30.894;2022-07-23T03:18:48;5.63;;;3.97;;
43680;SDS011;29281;50.356;30.894;2022-07-23T03:19:52;4.30;;;3.90;;
43680;SDS011;29281;50.356;30.894;2022-07-23T03:20:58;4.31;;;3.67;;
43680;SDS011;29281;50.356;30.894;2022-07-23T03:22:03;5.51;;;3.95;;
43680;SDS011;29281;50.356;30.894;2022-07-23T03:23:06;7.74;;;4.05;;
43680;SDS011;29281;50.356;30.894;2022-07-23T03:24:10;4.17;;;3.52;;
43680;SDS011;29281;50.356;30.894;2022-07-23T03:25:13;4.48;;;3.97;;
43680;SDS011;29281;50.356;30.894;2022-07-23T03:26:22;4.36;;;3.47;;
43680;SDS011;29281;50.356;30.894;2022-07-23T03:27:27;4.36;;;3.96;;
43680;SDS011;29281;50.356;30.894;2022-07-23T03:28:37;4.02;;;3.62;;
43680;SDS011;29281;50.356;30.894;2022-07-23T03:29:41;4.58;;;3.58;;
43680;SDS011;29281;50.356;30.894;2022-07-23T03:30:46;5.95;;;3.99;;
43680;SDS011;29281;50.356;30.894;2022-07-23T03:31:50;4.51;;;3.91;;
43680;SDS011;29281;50.356;30.894;2022-07-23T03:32:54;4.31;;;3.91;;
43680;SDS011;29281;50.356;30.894;2022-07-23T03:34:00;4.41;;;3.99;;
43680;SDS011;29281;50.356;30.894;2022-07-23T03:35:05;5.15;;;3.76;;
43680;SDS011;29281;50.356;30.894;2022-07-23T03:36:13;4.96;;;4.14;;
43680;SDS011;29281;50.356;30.894;2022-07-23T03:37:19;5.36;;;3.89;;
43680;SDS011;29281;50.356;30.894;2022-07-23T03:38:23;4.59;;;3.95;;
43680;SDS011;29281;50.356;30.894;2022-07-23T03:39:31;4.74;;;3.93;;
43680;SDS011;29281;50.356;30.894;2022-07-23T03:40:35;4.97;;;4.29;;
43680;SDS011;29281;50.356;30.894;2022-07-23T03:41:42;5.20;;;3.77;;
43680;SDS011;29281;50.356;30.894;2022-07-23T03:42:47;5.29;;;3.95;;
43680;SDS011;29281;50.356;30.894;2022-07-23T03:43:51;5.00;;;4.06;;
43680;SDS011;29281;50.356;30.894;2022-07-23T03:44:54;4.41;;;3.74;;
43680;SDS011;29281;50.356;30.894;2022-07-23T03:46:02;6.95;;;3.84;;
43680;SDS011;29281;50.356;30.894;2022-07-23T03:47:06;4.80;;;3.76;;
43680;SDS011;29281;50.356;30.894;2022-07-23T03:48:10;4.53;;;3.87;;
43680;SDS011;29281;50.356;30.894;2022-07-23T03:49:14;5.41;;;4.04;;
43680;SDS011;29281;50.356;30.894;2022-07-23T03:50:18;4.84;;;3.77;;
43680;SDS011;29281;50.356;30.894;2022-07-23T03:51:22;5.15;;;4.12;;
43680;SDS011;29281;50.356;30.894;2022-07-23T03:52:26;4.47;;;4.07;;
43680;SDS011;29281;50.356;30.894;2022-07-23T03:53:31;5.89;;;4.18;;
43680;SDS011;29281;50.356;30.894;2022-07-23T03:54:36;4.46;;;3.96;;
43680;SDS011;29281;50.356;30.894;2022-07-23T03:55:39;5.01;;;4.17;;
43680;SDS011;29281;50.356;30.894;2022-07-23T03:56:43;5.46;;;3.96;;
43680;SDS011;29281;50.356;30.894;2022-07-23T03:57:48;5.33;;;4.11;;
43680;SDS011;29281;50.356;30.894;2022-07-23T03:58:51;4.97;;;3.64;;
43680;SDS011;29281;50.356;30.894;2022-07-23T03:59:56;4.12;;;3.71;;
43680;SDS011;29281;50.356;30.894;2022-07-23T04:01:01;5.11;;;3.53;;
43680;SDS011;29281;50.356;30.894;2022-07-23T04:02:07;4.51;;;3.50;;
43680;SDS011;29281;50.356;30.894;2022-07-23T04:03:13;4.31;;;3.24;;
43680;SDS011;29281;50.356;30.894;2022-07-23T04:04:17;4.25;;;3.55;;
43680;SDS011;29281;50.356;30.894;2022-07-23T04:05:21;4.72;;;3.68;;
43680;SDS011;29281;50.356;30.894;2022-07-23T04:06:27;5.71;;;3.44;;
43680;SDS011;29281;50.356;30.894;2022-07-23T04:07:32;3.84;;;3.15;;
43680;SDS011;29281;50.356;30.894;2022-07-23T04:08:37;3.63;;;3.31;;
43680;SDS011;29281;50.356;30.894;2022-07-23T04:09:41;4.46;;;3.33;;
43680;SDS011;29281;50.356;30.894;2022-07-23T04:10:48;4.24;;;3.16;;
43680;SDS011;29281;50.356;30.894;2022-07-23T04:11:52;5.78;;;3.31;;
43680;SDS011;29281;50.356;30.894;2022-07-23T04:13:00;5.06;;;3.46;;
43680;SDS011;29281;50.356;30.894;2022-07-23T04:14:06;3.77;;;3.13;;
43680;SDS011;29281;50.356;30.894;2022-07-23T04:15:09;3.83;;;3.22;;
43680;SDS011;29281;50.356;30.894;2022-07-23T04:16:13;4.97;;;3.49;;
43680;SDS011;29281;50.356;30.894;2022-07-23T04:17:20;3.87;;;3.42;;
43680;SDS011;29281;50.356;30.894;2022-07-23T04:18:23;4.02;;;3.56;;
43680;SDS011;29281;50.356;30.894;2022-07-23T04:19:29;4.06;;;3.48;;
43680;SDS011;29281;50.356;30.894;2022-07-23T04:20:38;4.14;;;3.67;;
43680;SDS011;29281;50.356;30.894;2022-07-23T04:21:43;4.04;;;3.49;;
43680;SDS011;29281;50.356;30.894;2022-07-23T04:22:47;4.12;;;3.37;;
43680;SDS011;29281;50.356;30.894;2022-07-23T04:23:51;4.71;;;3.88;;
43680;SDS011;29281;50.356;30.894;2022-07-23T04:24:55;5.99;;;3.58;;
43680;SDS011;29281;50.356;30.894;2022-07-23T04:26:01;4.34;;;3.62;;
43680;SDS011;29281;50.356;30.894;2022-07-23T04:27:07;5.29;;;3.53;;
43680;SDS011;29281;50.356;30.894;2022-07-23T04:28:12;4.12;;;3.56;;
43680;SDS011;29281;50.356;30.894;2022-07-23T04:29:16;5.11;;;3.69;;
43680;SDS011;29281;50.356;30.894;2022-07-23T04:30:21;5.72;;;3.64;;
43680;SDS011;29281;50.356;30.894;2022-07-23T04:31:28;4.97;;;3.84;;
43680;SDS011;29281;50.356;30.894;2022-07-23T04:32:33;4.74;;;3.72;;
43680;SDS011;29281;50.356;30.894;2022-07-23T04:33:37;6.61;;;3.81;;
43680;SDS011;29281;50.356;30.894;2022-07-23T04:34:45;4.41;;;3.68;;
43680;SDS011;29281;50.356;30.894;2022-07-23T04:35:51;4.14;;;3.72;;
43680;SDS011;29281;50.356;30.894;2022-07-23T04:37:10;4.63;;;3.84;;
43680;SDS011;29281;50.356;30.894;2022-07-23T04:38:19;6.34;;;3.64;;
43680;SDS011;29281;50.356;30.894;2022-07-23T04:39:23;4.42;;;3.91;;
43680;SDS011;29281;50.356;30.894;2022-07-23T04:40:29;4.49;;;3.68;;
43680;SDS011;29281;50.356;30.894;2022-07-23T04:41:33;5.08;;;3.59;;
43680;SDS011;29281;50.356;30.894;2022-07-23T04:42:37;4.98;;;3.39;;
43680;SDS011;29281;50.356;30.894;2022-07-23T04:43:42;4.45;;;3.69;;
43680;SDS011;29281;50.356;30.894;2022-07-23T04:44:45;4.26;;;3.62;;
43680;SDS011;29281;50.356;30.894;2022-07-23T04:45:51;3.71;;;3.34;;
43680;SDS011;29281;50.356;30.894;2022-07-23T04:46:55;3.91;;;3.45;;
43680;SDS011;29281;50.356;30.894;2022-07-23T04:48:00;4.77;;;3.54;;
43680;SDS011;29281;50.356;30.894;2022-07-23T04:49:08;3.97;;;3.43;;
43680;SDS011;29281;50.356;30.894;2022-07-23T04:50:15;4.39;;;3.58;;
43680;SDS011;29281;50.356;30.894;2022-07-23T04:51:24;3.54;;;3.14;;
43680;SDS011;29281;50.356;30.894;2022-07-23T04:52:27;5.03;;;3.24;;
43680;SDS011;29281;50.356;30.894;2022-07-23T04:53:32;3.61;;;3.23;;
43680;SDS011;29281;50.356;30.894;2022-07-23T04:54:35;3.90;;;2.95;;
43680;SDS011;29281;50.356;30.894;2022-07-23T04:55:41;4.74;;;3.11;;
43680;SDS011;29281;50.356;30.894;2022-07-23T04:56:45;4.78;;;3.23;;
43680;SDS011;29281;50.356;30.894;2022-07-23T04:57:49;4.33;;;2.94;;
43680;SDS011;29281;50.356;30.894;2022-07-23T04:58:54;4.24;;;2.88;;
43680;SDS011;29281;50.356;30.894;2022-07-23T04:59:57;3.31;;;2.96;;
43680;SDS011;29281;50.356;30.894;2022-07-23T05:01:02;3.17;;;2.87;;
43680;SDS011;29281;50.356;30.894;2022-07-23T05:02:07;3.66;;;2.87;;
43680;SDS011;29281;50.356;30.894;2022-07-23T05:03:12;4.84;;;2.99;;
43680;SDS011;29281;50.356;30.894;2022-07-23T05:04:19;4.43;;;2.83;;
43680;SDS011;29281;50.356;30.894;2022-07-23T05:05:23;3.54;;;3.21;;
43680;SDS011;29281;50.356;30.894;2022-07-23T05:06:29;3.36;;;2.77;;
43680;SDS011;29281;50.356;30.894;2022-07-23T05:07:32;4.09;;;2.87;;
43680;SDS011;29281;50.356;30.894;2022-07-23T05:08:35;3.28;;;2.86;;
43680;SDS011;29281;50.356;30.894;2022-07-23T05:09:40;4.21;;;2.86;;
43680;SDS011;29281;50.356;30.894;2022-07-23T05:10:44;4.61;;;2.65;;
43680;SDS011;29281;50.356;30.894;2022-07-23T05:11:50;3.60;;;2.80;;
43680;SDS011;29281;50.356;30.894;2022-07-23T05:12:55;3.45;;;2.50;;
43680;SDS011;29281;50.356;30.894;2022-07-23T05:13:58;3.72;;;2.67;;
43680;SDS011;29281;50.356;30.894;2022-07-23T05:15:04;3.23;;;2.79;;
43680;SDS011;29281;50.356;30.894;2022-07-23T05:16:13;3.17;;;2.69;;
43680;SDS011;29281;50.356;30.894;2022-07-23T05:17:19;4.37;;;2.46;;
43680;SDS011;29281;50.356;30.894;2022-07-23T05:18:23;3.94;;;2.61;;
43680;SDS011;29281;50.356;30.894;2022-07-23T05:19:28;3.57;;;2.63;;
43680;SDS011;29281;50.356;30.894;2022-07-23T05:20:32;4.57;;;2.81;;
43680;SDS011;29281;50.356;30.894;2022-07-23T05:21:37;3.66;;;2.64;;
43680;SDS011;29281;50.356;30.894;2022-07-23T05:22:41;4.03;;;2.54;;
43680;SDS011;29281;50.356;30.894;2022-07-23T05:23:48;5.15;;;2.67;;
43680;SDS011;29281;50.356;30.894;2022-07-23T05:24:51;4.22;;;2.33;;
43680;SDS011;29281;50.356;30.894;2022-07-23T05:25:54;2.89;;;2.45;;
43680;SDS011;29281;50.356;30.894;2022-07-23T05:27:01;2.71;;;2.44;;
43680;SDS011;29281;50.356;30.894;2022-07-23T05:28:07;5.26;;;2.81;;
43680;SDS011;29281;50.356;30.894;2022-07-23T05:29:10;2.66;;;2.24;;
43680;SDS011;29281;50.356;30.894;2022-07-23T05:30:14;4.01;;;2.37;;
43680;SDS011;29281;50.356;30.894;2022-07-23T05:31:18;2.85;;;2.30;;
43680;SDS011;29281;50.356;30.894;2022-07-23T05:32:22;2.64;;;2.33;;
43680;SDS011;29281;50.356;30.894;2022-07-23T05:33:27;4.38;;;2.58;;
43680;SDS011;29281;50.356;30.894;2022-07-23T05:34:32;2.58;;;2.38;;
43680;SDS011;29281;50.356;30.894;2022-07-23T05:35:35;3.72;;;2.47;;
43680;SDS011;29281;50.356;30.894;2022-07-23T05:36:41;4.59;;;2.44;;
43680;SDS011;29281;50.356;30.894;2022-07-23T05:37:45;3.37;;;2.55;;
43680;SDS011;29281;50.356;30.894;2022-07-23T05:38:53;3.76;;;2.74;;
43680;SDS011;29281;50.356;30.894;2022-07-23T05:39:54;3.04;;;2.39;;
43680;SDS011;29281;50.356;30.894;2022-07-23T05:41:01;3.64;;;2.42;;
43680;SDS011;29281;50.356;30.894;2022-07-23T05:42:07;3.23;;;2.33;;
43680;SDS011;29281;50.356;30.894;2022-07-23T05:43:16;2.94;;;2.56;;
43680;SDS011;29281;50.356;30.894;2022-07-23T05:44:20;5.79;;;2.28;;
43680;SDS011;29281;50.356;30.894;2022-07-23T05:45:24;4.14;;;2.45;;
43680;SDS011;29281;50.356;30.894;2022-07-23T05:46:27;3.16;;;2.31;;
43680;SDS011;29281;50.356;30.894;2022-07-23T05:47:46;3.60;;;2.36;;
43680;SDS011;29281;50.356;30.894;2022-07-23T05:48:53;3.38;;;2.33;;
43680;SDS011;29281;50.356;30.894;2022-07-23T05:50:03;4.21;;;2.54;;
43680;SDS011;29281;50.356;30.894;2022-07-23T05:51:20;3.76;;;2.38;;
43680;SDS011;29281;50.356;30.894;2022-07-23T05:52:25;3.04;;;2.37;;
43680;SDS011;29281;50.356;30.894;2022-07-23T05:53:37;3.17;;;2.28;;
43680;SDS011;29281;50.356;30.894;2022-07-23T05:54:43;3.11;;;2.23;;
43680;SDS011;29281;50.356;30.894;2022-07-23T05:55:47;3.25;;;2.43;;
43680;SDS011;29281;50.356;30.894;2022-07-23T05:56:51;2.95;;;2.29;;
43680;SDS011;29281;50.356;30.894;2022-07-23T05:57:58;4.83;;;2.19;;
43680;SDS011;29281;50.356;30.894;2022-07-23T06:00:22;2.59;;;2.19;;
43680;SDS011;29281;50.356;30.894;2022-07-23T06:01:27;2.52;;;2.30;;
43680;SDS011;29281;50.356;30.894;2022-07-23T06:02:35;2.82;;;2.09;;
43680;SDS011;29281;50.356;30.894;2022-07-23T06:03:38;3.87;;;2.47;;
43680;SDS011;29281;50.356;30.894;2022-07-23T06:04:42;4.28;;;2.43;;
43680;SDS011;29281;50.356;30.894;2022-07-23T06:05:48;3.65;;;2.32;;
43680;SDS011;29281;50.356;30.894;2022-07-23T06:06:52;3.63;;;2.04;;
43680;SDS011;29281;50.356;30.894;2022-07-23T06:08:00;3.29;;;2.23;;
43680;SDS011;29281;50.356;30.894;2022-07-23T06:09:04;4.09;;;2.17;;
43680;SDS011;29281;50.356;30.894;2022-07-23T06:10:10;4.84;;;2.36;;
43680;SDS011;29281;50.356;30.894;2022-07-23T06:11:17;7.06;;;2.69;;
43680;SDS011;29281;50.356;30.894;2022-07-23T06:12:22;4.27;;;2.24;;
43680;SDS011;29281;50.356;30.894;2022-07-23T06:13:29;2.64;;;2.10;;
43680;SDS011;29281;50.356;30.894;2022-07-23T06:14:33;3.25;;;2.44;;
43680;SDS011;29281;50.356;30.894;2022-07-23T06:15:37;3.21;;;2.36;;
43680;SDS011;29281;50.356;30.894;2022-07-23T06:16:43;3.43;;;2.09;;
43680;SDS011;29281;50.356;30.894;2022-07-23T06:17:46;3.98;;;2.11;;
43680;SDS011;29281;50.356;30.894;2022-07-23T06:18:54;2.33;;;1.93;;
43680;SDS011;29281;50.356;30.894;2022-07-23T06:20:02;3.58;;;2.38;;
43680;SDS011;29281;50.356;30.894;2022-07-23T06:21:09;3.69;;;2.10;;
43680;SDS011;29281;50.356;30.894;2022-07-23T06:22:17;3.59;;;2.18;;
43680;SDS011;29281;50.356;30.894;2022-07-23T06:23:21;3.59;;;2.16;;
43680;SDS011;29281;50.356;30.894;2022-07-23T06:24:25;3.84;;;2.22;;
43680;SDS011;29281;50.356;30.894;2022-07-23T06:25:29;3.10;;;2.25;;
43680;SDS011;29281;50.356;30.894;2022-07-23T06:26:36;4.28;;;2.27;;
43680;SDS011;29281;50.356;30.894;2022-07-23T06:27:39;3.02;;;2.24;;
43680;SDS011;29281;50.356;30.894;2022-07-23T06:28:50;3.08;;;2.21;;
43680;SDS011;29281;50.356;30.894;2022-07-23T06:29:58;4.28;;;2.37;;
43680;SDS011;29281;50.356;30.894;2022-07-23T06:31:02;2.80;;;2.16;;
43680;SDS011;29281;50.356;30.894;2022-07-23T06:32:09;2.66;;;2.07;;
43680;SDS011;29281;50.356;30.894;2022-07-23T06:33:15;3.54;;;2.12;;
43680;SDS011;29281;50.356;30.894;2022-07-23T06:34:19;2.51;;;1.99;;
43680;SDS011;29281;50.356;30.894;2022-07-23T06:35:22;4.58;;;2.14;;
43680;SDS011;29281;50.356;30.894;2022-07-23T06:36:27;4.76;;;2.17;;
43680;SDS011;29281;50.356;30.894;2022-07-23T06:37:31;6.11;;;2.25;;
43680;SDS011;29281;50.356;30.894;2022-07-23T06:38:36;3.28;;;2.38;;
43680;SDS011;29281;50.356;30.894;2022-07-23T06:39:41;4.19;;;2.25;;
43680;SDS011;29281;50.356;30.894;2022-07-23T06:40:49;4.84;;;2.13;;
43680;SDS011;29281;50.356;30.894;2022-07-23T06:41:55;2.64;;;2.33;;
43680;SDS011;29281;50.356;30.894;2022-07-23T06:43:02;4.48;;;2.21;;
43680;SDS011;29281;50.356;30.894;2022-07-23T06:44:12;3.53;;;2.10;;
43680;SDS011;29281;50.356;30.894;2022-07-23T06:45:17;3.18;;;2.01;;
43680;SDS011;29281;50.356;30.894;2022-07-23T06:46:22;3.31;;;2.19;;
43680;SDS011;29281;50.356;30.894;2022-07-23T06:47:36;2.53;;;2.12;;
43680;SDS011;29281;50.356;30.894;2022-07-23T06:48:39;4.06;;;2.24;;
43680;SDS011;29281;50.356;30.894;2022-07-23T06:49:42;4.47;;;2.02;;
43680;SDS011;29281;50.356;30.894;2022-07-23T06:50:48;2.94;;;2.16;;
43680;SDS011;29281;50.356;30.894;2022-07-23T06:51:50;3.35;;;2.17;;
43680;SDS011;29281;50.356;30.894;2022-07-23T06:52:54;3.09;;;2.17;;
43680;SDS011;29281;50.356;30.894;2022-07-23T06:53:57;2.87;;;2.06;;
43680;SDS011;29281;50.356;30.894;2022-07-23T06:55:01;2.55;;;2.10;;